createdAt,value
2022-09-15T00:00:45.673Z,1001.99
2022-09-15T00:02:57.773Z,1001.99
2022-09-15T00:05:09.873Z,1002.06
2022-09-15T00:07:21.934Z,1002.03
2022-09-15T00:09:34.010Z,1002.03
2022-09-15T00:11:46.082Z,1002.03
2022-09-15T00:13:58.179Z,1002.03
2022-09-15T00:16:14.829Z,1002.04
2022-09-15T00:18:23.350Z,1002.07
2022-09-15T00:20:35.425Z,1002.06
2022-09-15T00:22:48.519Z,1002.05
2022-09-15T00:25:01.444Z,1002.10
2022-09-15T00:27:12.721Z,1002.05
2022-09-15T00:29:24.791Z,1001.98
2022-09-15T00:31:36.880Z,1002.01
2022-09-15T00:33:50.454Z,1001.98
2022-09-15T00:36:02.542Z,1002.00
2022-09-15T00:38:15.634Z,1001.96
2022-09-15T00:40:27.772Z,1001.99
2022-09-15T00:42:40.774Z,1002.06
2022-09-15T00:44:52.845Z,1002.02
2022-09-15T00:47:18.630Z,1002.05
2022-09-15T00:48:05.904Z,1002.08
2022-09-15T00:50:17.015Z,1002.07
2022-09-15T00:52:29.089Z,1002.05
2022-09-15T00:54:41.224Z,1002.03
2022-09-15T00:56:53.245Z,1002.07
2022-09-15T00:59:05.333Z,1002.07
2022-09-15T01:01:17.480Z,1002.07
2022-09-15T01:03:29.492Z,1002.02
2022-09-15T01:05:41.653Z,1002.04
2022-09-15T01:07:53.706Z,1002.06
2022-09-15T01:10:05.785Z,1002.02
2022-09-15T01:12:17.867Z,1001.98
2022-09-15T01:14:32.525Z,1001.99
2022-09-15T01:16:44.422Z,1001.97
2022-09-15T01:18:56.428Z,1002.00
2022-09-15T01:21:08.517Z,1002.04
2022-09-15T01:23:20.585Z,1002.04
2022-09-15T01:25:33.673Z,1002.08
2022-09-15T01:27:45.771Z,1002.04
2022-09-15T01:29:57.850Z,1002.10
2022-09-15T01:32:09.931Z,1002.20
2022-09-15T01:34:22.003Z,1002.18
2022-09-15T01:36:34.120Z,1002.14
2022-09-15T01:38:47.224Z,1002.17
2022-09-15T01:40:59.272Z,1002.18
2022-09-15T01:43:11.361Z,1002.16
2022-09-15T01:45:23.504Z,1002.22
2022-09-15T01:47:37.037Z,1002.19
2022-09-15T01:49:49.132Z,1002.26
2022-09-15T01:52:01.183Z,1002.25
2022-09-15T01:54:13.272Z,1002.25
2022-09-15T01:56:25.362Z,1002.18
2022-09-15T01:58:37.429Z,1002.13
2022-09-15T02:00:49.593Z,1002.07
2022-09-15T02:03:02.189Z,1002.09
2022-09-15T02:05:13.700Z,1002.18
2022-09-15T02:07:25.791Z,1002.16
2022-09-15T02:09:37.896Z,1002.15
2022-09-15T02:11:51.004Z,1002.19
2022-09-15T02:14:03.067Z,1002.19
2022-09-15T02:16:15.173Z,1002.22
2022-09-15T02:18:28.726Z,1002.24
2022-09-15T02:20:40.815Z,1002.24
2022-09-15T02:22:52.935Z,1002.23
2022-09-15T02:25:06.482Z,1002.23
2022-09-15T02:27:18.571Z,1002.21
2022-09-15T02:29:31.643Z,1002.24
2022-09-15T02:31:43.803Z,1002.21
2022-09-15T02:33:55.887Z,1002.16
2022-09-15T02:36:07.972Z,1002.11
2022-09-15T02:38:20.291Z,1002.12
2022-09-15T02:40:32.477Z,1002.07
2022-09-15T02:42:45.469Z,1002.10
2022-09-15T02:44:57.582Z,1002.07
2022-09-15T02:47:09.616Z,1002.08
2022-09-15T02:49:21.701Z,1002.10
2022-09-15T02:51:35.280Z,1002.09
2022-09-15T02:53:48.372Z,1002.09
2022-09-15T02:56:02.480Z,1002.08
2022-09-15T02:58:15.095Z,1002.07
2022-09-15T03:00:26.610Z,1002.08
2022-09-15T03:02:39.698Z,1002.06
2022-09-15T03:04:52.760Z,1002.07
2022-09-15T03:07:04.878Z,1002.08
2022-09-15T03:09:16.929Z,1002.11
2022-09-15T03:11:30.511Z,1002.13
2022-09-15T03:13:42.591Z,1002.07
2022-09-15T03:15:55.575Z,1002.12
2022-09-15T03:18:06.781Z,1002.20
2022-09-15T03:20:18.833Z,1002.16
2022-09-15T03:22:31.915Z,1002.17
2022-09-15T03:24:46.482Z,1002.15
2022-09-15T03:26:58.553Z,1002.14
2022-09-15T03:29:11.675Z,1002.17
2022-09-15T03:31:24.808Z,1002.10
2022-09-15T03:33:36.806Z,1002.13
2022-09-15T03:35:48.881Z,1002.08
2022-09-15T03:38:00.962Z,1002.12
2022-09-15T03:40:14.713Z,1002.13
2022-09-15T03:42:26.664Z,1002.15
2022-09-15T03:44:40.252Z,1002.15
2022-09-15T03:46:52.338Z,1002.10
2022-09-15T03:49:04.422Z,1002.09
2022-09-15T03:51:16.530Z,1002.11
2022-09-15T03:53:29.658Z,1002.09
2022-09-15T03:55:41.659Z,1002.08
2022-09-15T03:57:53.751Z,1002.04
2022-09-15T04:00:05.822Z,1002.03
2022-09-15T04:02:18.006Z,1002.06
2022-09-15T04:04:29.987Z,1002.05
2022-09-15T04:06:43.066Z,1002.05
2022-09-15T04:08:54.664Z,1002.02
2022-09-15T04:11:06.780Z,1002.06
2022-09-15T04:13:18.889Z,1002.00
2022-09-15T04:15:31.985Z,1002.01
2022-09-15T04:17:45.582Z,1002.01
2022-09-15T04:19:58.611Z,1002.08
2022-09-15T04:22:17.009Z,1002.05
2022-09-15T04:24:24.340Z,1002.11
2022-09-15T04:26:36.429Z,1002.06
2022-09-15T04:28:48.490Z,1002.08
2022-09-15T04:31:00.634Z,1001.99
2022-09-15T04:33:14.224Z,1002.00
2022-09-15T04:35:26.363Z,1001.99
2022-09-15T04:37:39.920Z,1001.98
2022-09-15T04:39:53.538Z,1001.93
2022-09-15T04:42:07.077Z,1001.95
2022-09-15T04:44:25.174Z,1002.03
2022-09-15T04:46:38.859Z,1002.00
2022-09-15T04:48:50.869Z,1001.98
2022-09-15T04:51:02.918Z,1002.03
2022-09-15T04:53:16.508Z,1002.01
2022-09-15T04:55:29.597Z,1001.97
2022-09-15T04:57:42.690Z,1001.94
2022-09-15T04:59:58.238Z,1001.93
2022-09-15T05:02:11.311Z,1001.95
2022-09-15T05:04:24.943Z,1001.93
2022-09-15T05:06:39.793Z,1001.97
2022-09-15T05:08:54.443Z,1001.93
2022-09-15T05:11:10.003Z,1001.92
2022-09-15T05:13:28.095Z,1001.93
2022-09-15T05:15:43.704Z,1001.96
2022-09-15T05:18:01.784Z,1001.94
2022-09-15T05:20:19.901Z,1001.96
2022-09-15T05:22:41.485Z,1001.92
2022-09-15T05:24:54.554Z,1001.98
2022-09-15T05:27:12.617Z,1002.03
2022-09-15T05:29:30.706Z,1002.05
2022-09-15T05:31:48.851Z,1002.04
2022-09-15T05:34:03.380Z,1002.08
2022-09-15T05:36:20.490Z,1002.10
2022-09-15T05:38:38.064Z,1002.10
2022-09-15T05:40:56.158Z,1002.12
2022-09-15T05:43:14.250Z,1002.16
2022-09-15T05:45:30.812Z,1002.16
2022-09-15T05:47:48.950Z,1002.18
2022-09-15T05:50:03.492Z,1002.23
2022-09-15T05:52:21.578Z,1002.26
2022-09-15T05:54:39.665Z,1002.23
2022-09-15T05:56:56.229Z,1002.19
2022-09-15T05:59:14.307Z,1002.13
2022-09-15T06:01:32.468Z,1002.13
2022-09-15T06:03:46.563Z,1002.14
2022-09-15T06:06:06.640Z,1002.17
2022-09-15T06:08:24.686Z,1002.17
2022-09-15T06:10:40.275Z,1002.13
2022-09-15T06:12:56.840Z,1002.09
2022-09-15T06:15:12.432Z,1002.11
2022-09-15T06:17:28.034Z,1002.13
2022-09-15T06:19:46.094Z,1002.22
2022-09-15T06:22:02.719Z,1002.18
2022-09-15T06:24:23.327Z,1002.15
2022-09-15T06:26:38.987Z,1002.05
2022-09-15T06:27:38.973Z,1002.09
2022-09-15T06:29:58.084Z,1002.09
2022-09-15T06:32:13.721Z,1002.15
2022-09-15T06:34:29.273Z,1002.16
2022-09-15T06:36:47.348Z,1002.14
2022-09-15T06:39:02.912Z,1002.08
2022-09-15T06:41:17.485Z,1002.11
2022-09-15T06:43:35.577Z,1002.13
2022-09-15T06:45:50.184Z,1002.12
2022-09-15T06:48:24.015Z,1002.11
2022-09-15T06:49:09.198Z,1002.14
2022-09-15T06:51:22.812Z,1002.27
2022-09-15T06:53:38.383Z,1002.27
2022-09-15T06:55:53.838Z,1002.32
2022-09-15T06:58:04.177Z,1002.39
2022-09-15T07:00:17.254Z,1002.39
2022-09-15T07:02:33.205Z,1002.39
2022-09-15T07:04:44.915Z,1002.43
2022-09-15T07:06:59.083Z,1002.47
2022-09-15T07:09:14.073Z,1002.46
2022-09-15T07:11:28.266Z,1002.43
2022-09-15T07:13:45.771Z,1002.44
2022-09-15T07:15:59.387Z,1002.46
2022-09-15T07:18:14.505Z,1002.52
2022-09-15T07:20:27.512Z,1002.47
2022-09-15T07:22:45.594Z,1002.43
2022-09-15T07:25:00.484Z,1002.52
2022-09-15T07:27:22.059Z,1002.51
2022-09-15T07:29:40.135Z,1002.48
2022-09-15T07:31:53.276Z,1002.51
2022-09-15T07:34:11.279Z,1002.51
2022-09-15T07:36:24.402Z,1002.55
2022-09-15T07:38:36.778Z,1002.53
2022-09-15T07:40:52.045Z,1002.50
2022-09-15T07:43:04.148Z,1002.54
2022-09-15T07:45:19.758Z,1002.54
2022-09-15T07:47:31.825Z,1002.53
2022-09-15T07:49:47.388Z,1002.58
2022-09-15T07:52:00.468Z,1002.56
2022-09-15T07:54:20.766Z,1002.52
2022-09-15T07:56:31.079Z,1002.59
2022-09-15T07:58:43.241Z,1002.54
2022-09-15T08:00:55.376Z,1002.55
2022-09-15T08:03:08.419Z,1002.60
2022-09-15T08:05:22.999Z,1002.66
2022-09-15T08:07:38.663Z,1002.66
2022-09-15T08:09:53.647Z,1002.68
2022-09-15T08:12:04.753Z,1002.71
2022-09-15T08:14:22.837Z,1002.70
2022-09-15T08:16:37.473Z,1002.68
2022-09-15T08:18:53.489Z,1002.66
2022-09-15T08:21:08.921Z,1002.73
2022-09-15T08:23:22.490Z,1002.71
2022-09-15T08:25:34.571Z,1002.69
2022-09-15T08:27:48.206Z,1002.77
2022-09-15T08:30:01.865Z,1002.78
2022-09-15T08:32:14.039Z,1002.79
2022-09-15T08:34:26.964Z,1002.78
2022-09-15T08:36:41.525Z,1002.76
2022-09-15T08:38:53.627Z,1002.78
2022-09-15T08:41:06.285Z,1002.75
2022-09-15T08:43:21.306Z,1002.78
2022-09-15T08:45:33.377Z,1002.75
2022-09-15T08:47:49.929Z,1002.76
2022-09-15T08:50:05.499Z,1002.80
2022-09-15T08:52:42.954Z,1002.80
2022-09-15T08:54:33.198Z,1002.74
2022-09-15T08:56:46.562Z,1002.67
2022-09-15T08:58:58.665Z,1002.60
2022-09-15T09:01:11.847Z,1002.61
2022-09-15T09:03:24.388Z,1002.57
2022-09-15T09:05:35.926Z,1002.61
2022-09-15T09:07:53.986Z,1002.58
2022-09-15T09:10:08.574Z,1002.61
2022-09-15T09:12:35.112Z,1002.60
2022-09-15T09:15:23.001Z,1002.63
2022-09-15T09:17:31.637Z,1002.59
2022-09-15T09:19:43.806Z,1002.61
2022-09-15T09:21:57.467Z,1002.58
2022-09-15T09:24:11.979Z,1002.60
2022-09-15T09:26:28.563Z,1002.58
2022-09-15T09:28:38.635Z,1002.56
2022-09-15T09:30:55.934Z,1002.63
2022-09-15T09:33:24.531Z,1002.59
2022-09-15T09:35:28.225Z,1002.56
2022-09-15T09:37:42.821Z,1002.55
2022-09-15T09:39:56.464Z,1002.55
2022-09-15T09:42:13.297Z,1002.59
2022-09-15T09:44:32.623Z,1002.59
2022-09-15T09:46:49.373Z,1002.61
2022-09-15T09:49:06.042Z,1002.57
2022-09-15T09:51:18.129Z,1002.55
2022-09-15T09:53:37.221Z,1002.51
2022-09-15T09:55:50.913Z,1002.55
2022-09-15T09:58:03.480Z,1002.43
2022-09-15T10:00:21.308Z,1002.45
2022-09-15T10:03:22.517Z,1002.49
2022-09-15T10:05:55.394Z,1002.47
2022-09-15T10:08:15.696Z,1002.53
2022-09-15T10:10:30.865Z,1002.50
2022-09-15T10:12:45.771Z,1002.48
2022-09-15T10:14:56.273Z,1002.50
2022-09-15T10:17:08.364Z,1002.43
2022-09-15T10:19:27.045Z,1002.36
2022-09-15T10:21:42.635Z,1002.37
2022-09-15T10:23:56.233Z,1002.42
2022-09-15T10:26:08.585Z,1002.42
2022-09-15T10:28:22.883Z,1002.44
2022-09-15T10:30:41.296Z,1002.44
2022-09-15T10:32:54.851Z,1002.38
2022-09-15T10:35:11.243Z,1002.38
2022-09-15T10:37:24.218Z,1002.41
2022-09-15T10:39:38.780Z,1002.43
2022-09-15T10:41:52.026Z,1002.45
2022-09-15T10:44:05.473Z,1002.40
2022-09-15T10:46:17.749Z,1002.42
2022-09-15T10:48:31.839Z,1002.50
2022-09-15T10:50:48.748Z,1002.54
2022-09-15T10:53:04.359Z,1002.51
2022-09-15T10:55:36.789Z,1002.46
2022-09-15T10:57:36.946Z,1002.44
2022-09-15T10:59:50.709Z,1002.37
2022-09-15T11:02:05.955Z,1002.42
2022-09-15T11:05:34.511Z,1002.38
2022-09-15T11:07:51.277Z,1002.44
2022-09-15T11:10:05.867Z,1002.41
2022-09-15T11:12:17.992Z,1002.43
2022-09-15T11:14:39.114Z,1002.45
2022-09-15T11:16:51.180Z,1002.43
2022-09-15T11:19:04.292Z,1002.37
2022-09-15T11:21:16.358Z,1002.42
2022-09-15T11:23:29.962Z,1002.41
2022-09-15T11:25:46.173Z,1002.42
2022-09-15T11:28:08.041Z,1002.47
2022-09-15T11:30:21.638Z,1002.49
2022-09-15T11:32:37.465Z,1002.50
2022-09-15T11:34:50.502Z,1002.44
2022-09-15T11:37:05.094Z,1002.44
2022-09-15T11:39:29.674Z,1002.48
2022-09-15T11:41:52.770Z,1002.49
2022-09-15T11:44:04.832Z,1002.41
2022-09-15T11:46:20.052Z,1002.42
2022-09-15T11:48:30.564Z,1002.52
2022-09-15T11:50:46.684Z,1002.56
2022-09-15T11:52:57.225Z,1002.55
2022-09-15T11:55:09.290Z,1002.54
2022-09-15T11:57:25.404Z,1002.54
2022-09-15T11:59:38.515Z,1002.55
2022-09-15T12:01:53.220Z,1002.51
2022-09-15T12:04:05.141Z,1002.52
2022-09-15T12:06:19.755Z,1002.49
2022-09-15T12:08:40.697Z,1002.47
2022-09-15T12:10:58.791Z,1002.35
2022-09-15T12:13:14.384Z,1002.33
2022-09-15T12:15:26.448Z,1002.36
2022-09-15T12:17:38.559Z,1002.40
2022-09-15T12:19:50.612Z,1002.45
2022-09-15T12:22:03.791Z,1002.51
2022-09-15T12:24:18.257Z,1002.51
2022-09-15T12:26:39.888Z,1002.49
2022-09-15T12:28:52.068Z,1002.47
2022-09-15T12:31:05.127Z,1002.49
2022-09-15T12:33:17.101Z,1002.44
2022-09-15T12:35:29.161Z,1002.48
2022-09-15T12:37:43.739Z,1002.42
2022-09-15T12:40:03.371Z,1002.47
2022-09-15T12:42:18.236Z,1002.43
2022-09-15T12:44:30.366Z,1002.46
2022-09-15T12:46:44.251Z,1002.39
2022-09-15T12:48:54.672Z,1002.36
2022-09-15T12:51:09.714Z,1002.40
2022-09-15T12:53:25.843Z,1002.42
2022-09-15T12:55:36.179Z,1002.42
2022-09-15T13:00:01.439Z,1002.40
2022-09-15T13:02:14.674Z,1002.40
2022-09-15T13:05:40.779Z,1002.48
2022-09-15T13:07:57.601Z,1002.46
2022-09-15T13:10:12.341Z,1002.40
2022-09-15T13:12:25.717Z,1002.32
2022-09-15T13:16:19.425Z,1002.31
2022-09-15T13:18:35.969Z,1002.34
2022-09-15T13:20:48.058Z,1002.34
2022-09-15T13:23:01.731Z,1002.42
2022-09-15T13:25:15.229Z,1002.35
2022-09-15T13:27:29.824Z,1002.29
2022-09-15T13:29:44.708Z,1002.32
2022-09-15T13:32:00.926Z,1002.33
2022-09-15T13:35:36.363Z,1002.31
2022-09-15T13:38:16.950Z,1002.29
2022-09-15T13:38:52.992Z,1002.27
2022-09-15T13:41:07.805Z,1002.24
2022-09-15T13:43:20.866Z,1002.21
2022-09-15T13:45:33.993Z,1002.15
2022-09-15T13:47:46.074Z,1002.15
2022-09-15T13:49:59.133Z,1002.06
2022-09-15T13:52:13.082Z,1002.09
2022-09-15T13:54:25.167Z,1002.06
2022-09-15T13:56:43.890Z,1002.05
2022-09-15T13:59:04.372Z,1002.03
2022-09-15T14:02:10.478Z,1002.10
2022-09-15T14:04:22.401Z,1002.05
2022-09-15T14:06:39.014Z,1002.05
2022-09-15T14:08:51.196Z,1002.07
2022-09-15T14:11:05.540Z,1002.08
2022-09-15T14:13:16.766Z,1002.10
2022-09-15T14:15:28.827Z,1002.11
2022-09-15T14:17:40.919Z,1002.08
2022-09-15T14:19:57.488Z,1002.10
2022-09-15T14:22:09.575Z,1002.04
2022-09-15T14:24:25.095Z,1002.03
2022-09-15T14:26:37.146Z,1002.04
2022-09-15T14:28:49.316Z,1001.99
2022-09-15T14:31:01.306Z,1001.97
2022-09-15T14:33:13.412Z,1001.92
2022-09-15T14:35:25.517Z,1001.96
2022-09-15T14:36:25.453Z,1002.00
2022-09-15T14:38:43.179Z,1002.02
2022-09-15T14:40:54.417Z,1002.09
2022-09-15T14:43:08.555Z,1002.03
2022-09-15T14:47:32.141Z,1002.05
2022-09-15T14:49:48.631Z,1002.20
2022-09-15T14:52:03.570Z,1002.10
2022-09-15T14:54:18.133Z,1002.14
2022-09-15T14:56:31.811Z,1002.14
2022-09-15T14:58:51.316Z,1002.13
2022-09-15T15:00:59.513Z,1002.27
2022-09-15T15:03:52.603Z,1002.34
2022-09-15T15:06:27.734Z,1002.41
2022-09-15T15:07:05.321Z,1002.40
2022-09-15T15:09:17.974Z,1002.44
2022-09-15T15:11:30.034Z,1002.42
2022-09-15T15:14:25.723Z,1002.35
2022-09-15T15:16:39.762Z,1002.40
2022-09-15T15:18:53.370Z,1002.39
2022-09-15T15:21:05.333Z,1002.43
2022-09-15T15:23:17.436Z,1002.48
2022-09-15T15:25:29.528Z,1002.51
2022-09-15T15:27:45.068Z,1002.58
2022-09-15T15:29:57.149Z,1002.63
2022-09-15T15:32:09.290Z,1002.66
2022-09-15T15:34:23.848Z,1002.63
2022-09-15T15:36:38.935Z,1002.64
2022-09-15T15:39:35.185Z,1002.60
2022-09-15T15:44:01.210Z,1002.58
2022-09-15T15:46:14.819Z,1002.59
2022-09-15T15:48:34.018Z,1002.58
2022-09-15T15:50:43.760Z,1002.59
2022-09-15T15:52:57.856Z,1002.58
2022-09-15T15:55:13.406Z,1002.55
2022-09-15T15:57:26.324Z,1002.56
2022-09-15T15:59:37.568Z,1002.58
2022-09-15T16:01:51.211Z,1002.55
2022-09-15T16:04:04.261Z,1002.56
2022-09-15T16:06:17.611Z,1002.55
2022-09-15T16:08:30.713Z,1002.58
2022-09-15T16:10:45.882Z,1002.59
2022-09-15T16:12:56.387Z,1002.65
2022-09-15T16:15:08.516Z,1002.62
2022-09-15T16:18:37.933Z,1002.61
2022-09-15T16:23:24.133Z,1002.64
2022-09-15T16:25:37.203Z,1002.65
2022-09-15T16:27:49.604Z,1002.64
2022-09-15T16:30:02.911Z,1002.69
2022-09-15T16:32:18.569Z,1002.73
2022-09-15T16:34:33.137Z,1002.67
2022-09-15T16:36:51.431Z,1002.77
2022-09-15T16:39:07.203Z,1002.78
2022-09-15T16:41:21.369Z,1002.81
2022-09-15T16:43:33.958Z,1002.81
2022-09-15T16:45:47.072Z,1002.86
2022-09-15T16:48:03.230Z,1002.83
2022-09-15T16:50:19.311Z,1002.74
2022-09-15T16:54:37.374Z,1002.70
2022-09-15T16:56:48.519Z,1002.62
2022-09-15T16:59:00.893Z,1002.61
2022-09-15T17:01:12.746Z,1002.66
2022-09-15T17:03:26.823Z,1002.64
2022-09-15T17:05:48.576Z,1002.60
2022-09-15T17:09:25.631Z,1002.70
2022-09-15T17:11:35.798Z,1002.72
2022-09-15T17:13:51.405Z,1002.69
2022-09-15T17:19:26.571Z,1002.76
2022-09-15T17:21:38.625Z,1002.73
2022-09-15T17:23:53.907Z,1002.77
2022-09-15T17:26:11.707Z,1002.75
2022-09-15T17:28:33.722Z,1002.72
2022-09-15T17:31:01.895Z,1002.78
2022-09-15T17:35:57.167Z,1002.81
2022-09-15T17:39:29.023Z,1002.94
2022-09-15T17:43:08.540Z,1003.02
2022-09-15T17:45:21.382Z,1002.97
2022-09-15T17:47:33.060Z,1003.00
2022-09-15T17:50:23.192Z,1003.04
2022-09-15T17:52:44.770Z,1003.10
2022-09-15T17:55:01.360Z,1003.01
2022-09-15T17:57:18.312Z,1003.00
2022-09-15T17:59:33.206Z,1003.00
2022-09-15T18:01:49.394Z,1003.03
2022-09-15T18:04:03.466Z,1003.02
2022-09-15T18:06:15.421Z,1003.01
2022-09-15T18:08:27.503Z,1003.03
2022-09-15T18:10:42.190Z,1002.98
2022-09-15T18:12:55.554Z,1003.03
2022-09-15T18:15:06.283Z,1003.00
2022-09-15T18:17:21.876Z,1003.07
2022-09-15T18:19:33.953Z,1003.09
2022-09-15T18:21:47.348Z,1003.15
2022-09-15T18:24:01.619Z,1003.14
2022-09-15T18:26:15.218Z,1003.18
2022-09-15T18:28:28.806Z,1003.19
2022-09-15T18:30:40.927Z,1003.17
2022-09-15T18:32:54.492Z,1003.14
2022-09-15T18:35:10.053Z,1003.12
2022-09-15T18:37:29.232Z,1003.16
2022-09-15T18:39:36.714Z,1003.13
2022-09-15T18:41:50.651Z,1003.17
2022-09-15T18:44:01.892Z,1003.19
2022-09-15T18:46:17.513Z,1003.15
2022-09-15T18:48:33.047Z,1003.20
2022-09-15T18:50:45.128Z,1003.20
2022-09-15T18:52:59.721Z,1003.18
2022-09-15T18:55:13.373Z,1003.15
2022-09-15T18:57:25.413Z,1003.17
2022-09-15T18:59:40.007Z,1003.23
2022-09-15T19:01:52.171Z,1003.25
2022-09-15T19:04:04.151Z,1003.28
2022-09-15T19:06:16.278Z,1003.23
2022-09-15T19:08:28.332Z,1003.23
2022-09-15T19:10:40.417Z,1003.19
2022-09-15T19:12:52.496Z,1003.13
2022-09-15T19:15:10.611Z,1003.16
2022-09-15T19:17:17.668Z,1003.18
2022-09-15T19:19:29.723Z,1003.27
2022-09-15T19:21:41.813Z,1003.26
2022-09-15T19:23:53.889Z,1003.25
2022-09-15T19:26:05.973Z,1003.21
2022-09-15T19:28:18.069Z,1003.19
2022-09-15T19:30:30.127Z,1003.22
2022-09-15T19:32:43.206Z,1003.23
2022-09-15T19:34:55.273Z,1003.24
2022-09-15T19:37:15.208Z,1003.23
2022-09-15T19:39:25.797Z,1003.23
2022-09-15T19:41:37.853Z,1003.21
2022-09-15T19:43:51.536Z,1003.21
2022-09-15T19:46:03.552Z,1003.24
2022-09-15T19:48:15.582Z,1003.27
2022-09-15T19:50:27.706Z,1003.25
2022-09-15T19:52:40.758Z,1003.28
2022-09-15T19:54:53.824Z,1003.31
2022-09-15T19:57:05.935Z,1003.29
2022-09-15T19:59:18.008Z,1003.30
2022-09-15T20:01:30.373Z,1003.35
2022-09-15T20:03:42.210Z,1003.29
2022-09-15T20:05:54.296Z,1003.33
2022-09-15T20:08:06.367Z,1003.29
2022-09-15T20:10:19.284Z,1003.34
2022-09-15T20:12:30.553Z,1003.38
2022-09-15T20:14:42.644Z,1003.46
2022-09-15T20:16:57.369Z,1003.42
2022-09-15T20:19:07.955Z,1003.49
2022-09-15T20:21:32.595Z,1003.49
2022-09-15T20:22:20.832Z,1003.49
2022-09-15T20:24:31.906Z,1003.52
2022-09-15T20:27:05.509Z,1003.53
2022-09-15T20:28:56.942Z,1003.52
2022-09-15T20:29:56.039Z,1003.49
2022-09-15T20:32:08.134Z,1003.52
2022-09-15T20:34:20.426Z,1003.48
2022-09-15T20:36:33.307Z,1003.55
2022-09-15T20:38:45.444Z,1003.55
2022-09-15T20:40:58.300Z,1003.56
2022-09-15T20:43:09.540Z,1003.56
2022-09-15T20:45:21.640Z,1003.54
2022-09-15T20:47:34.687Z,1003.53
2022-09-15T20:49:46.770Z,1003.59
2022-09-15T20:51:58.833Z,1003.58
2022-09-15T20:54:10.929Z,1003.56
2022-09-15T20:56:23.033Z,1003.55
2022-09-15T20:58:35.074Z,1003.55
2022-09-15T21:00:47.243Z,1003.60
2022-09-15T21:02:59.242Z,1003.62
2022-09-15T21:05:11.319Z,1003.55
2022-09-15T21:07:23.440Z,1003.51
2022-09-15T21:09:35.499Z,1003.54
2022-09-15T21:11:52.755Z,1003.53
2022-09-15T21:14:00.659Z,1003.49
2022-09-15T21:16:12.802Z,1003.51
2022-09-15T21:18:25.135Z,1003.56
2022-09-15T21:20:37.216Z,1003.57
2022-09-15T21:22:50.123Z,1003.55
2022-09-15T21:25:01.373Z,1003.56
2022-09-15T21:27:35.451Z,1003.59
2022-09-15T21:29:26.551Z,1003.57
2022-09-15T21:31:39.607Z,1003.61
2022-09-15T21:33:51.665Z,1003.69
2022-09-15T21:36:03.743Z,1003.67
2022-09-15T21:38:15.833Z,1003.72
2022-09-15T21:40:27.977Z,1003.67
2022-09-15T21:42:41.000Z,1003.75
2022-09-15T21:44:53.084Z,1003.78
2022-09-15T21:47:05.162Z,1003.79
2022-09-15T21:49:17.243Z,1003.79
2022-09-15T21:51:30.198Z,1003.84
2022-09-15T21:53:41.395Z,1003.87
2022-09-15T21:55:53.474Z,1003.81
2022-09-15T21:58:05.844Z,1003.83
2022-09-15T22:00:17.659Z,1003.89
2022-09-15T22:02:29.794Z,1003.88
2022-09-15T22:04:41.810Z,1003.93
2022-09-15T22:06:53.898Z,1003.95
2022-09-15T22:09:05.983Z,1003.96
2022-09-15T22:11:18.056Z,1003.98
